Time;durP1;ratioP1;P1;durP2;ratioP2;P2;SDS_P1;SDS_P2;PMS_P1;PMS_P2;Temp;Humidity;BMP_temperature;BMP_pressure;BME280_temperature;BME280_humidity;BME280_pressure;Samples;Min_cycle;Max_cycle;Signal;HPM_P1;HPM_P2
2022/07/13 00:00:06;;;;;;;3.90;1.45;;;;;;;16.19;67.20;100834.11;1781355;80;20927;-90
2022/07/13 00:02:34;;;;;;;6.42;1.37;;;;;;;16.16;67.35;100841.33;1781585;79;20896;-90
2022/07/13 00:05:01;;;;;;;4.45;2.08;;;;;;;16.14;67.43;100839.28;1781560;80;21813;-91
2022/07/13 00:07:28;;;;;;;3.58;1.45;;;;;;;16.10;67.44;100836.52;1781502;79;20840;-91
2022/07/13 00:09:55;;;;;;;3.02;1.82;;;;;;;16.01;68.09;100840.36;1781735;80;20888;-90
2022/07/13 00:12:22;;;;;;;4.67;2.10;;;;;;;16.01;68.09;100840.36;1782155;80;20880;-88
2022/07/13 00:14:51;;;;;;;2.02;1.82;;;;;;;15.97;68.39;100838.45;1783892;80;20967;-88
2022/07/13 00:17:18;;;;;;;2.47;1.82;;;;;;;15.94;68.48;100834.25;1784310;80;21213;-88
2022/07/13 00:19:44;;;;;;;3.27;1.77;;;;;;;15.92;68.59;100836.17;1783220;80;20864;-89
2022/07/13 00:22:12;;;;;;;4.03;1.98;;;;;;;15.91;68.54;100837.61;1781936;78;20884;-89
2022/07/13 00:24:39;;;;;;;3.47;1.92;;;;;;;15.90;68.71;100841.23;1783868;80;20899;-90
2022/07/13 00:27:06;;;;;;;3.47;2.55;;;;;;;15.88;68.74;100839.19;1782823;80;20871;-88
2022/07/13 00:29:33;;;;;;;3.12;1.70;;;;;;;15.85;68.67;100840.73;1782264;80;21170;-89
2022/07/13 00:32:01;;;;;;;5.67;2.45;;;;;;;15.83;69.05;100847.94;1781867;80;20876;-89
2022/07/13 00:34:30;;;;;;;1.98;1.87;;;;;;;15.80;69.04;100832.33;1781620;80;20907;-90
2022/07/13 00:36:56;;;;;;;2.12;2.00;;;;;;;15.79;68.95;100841.23;1781403;80;20951;-90
2022/07/13 00:39:23;;;;;;;1.50;1.40;;;;;;;15.74;68.87;100827.89;1781715;80;20833;-90
2022/07/13 00:41:51;;;;;;;1.60;1.50;;;;;;;15.73;67.94;100832.80;1781724;78;21228;-90
2022/07/13 00:44:18;;;;;;;4.10;1.67;;;;;;;15.73;67.94;100832.80;1781989;80;20876;-90
2022/07/13 00:46:54;;;;;;;1.75;1.65;;;;;;;15.74;67.52;100836.31;1782964;80;20900;-90
2022/07/13 00:49:22;;;;;;;3.33;2.35;;;;;;;15.75;68.13;100826.08;1783026;80;20951;-86
2022/07/13 00:51:49;;;;;;;1.67;1.25;;;;;;;15.73;68.48;100828.84;1784593;80;20983;-88
2022/07/13 00:54:19;;;;;;;2.15;1.45;;;;;;;15.72;68.58;100821.88;1783191;78;21144;-91
2022/07/13 00:56:48;;;;;;;4.90;1.55;;;;;;;15.69;68.88;100819.42;1781756;80;20947;-90
2022/07/13 00:59:15;;;;;;;2.37;1.77;;;;;;;15.67;68.95;100814.77;1781672;78;20899;-90
2022/07/13 01:01:42;;;;;;;1.95;1.67;;;;;;;15.66;69.33;100812.23;1781486;80;20876;-90
2022/07/13 01:04:10;;;;;;;3.27;1.72;;;;;;;15.66;69.49;100812.23;1781399;80;20915;-90
2022/07/13 01:06:36;;;;;;;2.40;1.87;;;;;;;15.65;69.64;100815.37;1781616;80;21317;-91
2022/07/13 01:09:05;;;;;;;2.33;1.80;;;;;;;15.63;69.88;100812.00;1781473;80;20915;-90
2022/07/13 01:11:33;;;;;;;2.80;1.70;;;;;;;15.58;70.17;100811.49;1782176;79;20884;-89
2022/07/13 01:14:00;;;;;;;4.15;2.02;;;;;;;15.58;70.17;100811.49;1753409;80;20935;-88
2022/07/13 01:16:27;;;;;;;2.62;1.90;;;;;;;15.54;70.14;100808.27;1751748;80;20880;-90
2022/07/13 01:18:54;;;;;;;4.37;1.92;;;;;;;15.49;70.30;100801.16;1781560;80;21088;-90
2022/07/13 01:21:21;;;;;;;3.25;2.58;;;;;;;15.44;70.61;100806.45;1781609;80;20844;-90
2022/07/13 01:23:48;;;;;;;3.35;2.72;;;;;;;15.37;70.91;100801.29;1781548;79;20876;-92
2022/07/13 01:26:16;;;;;;;2.60;1.98;;;;;;;15.29;71.17;100805.34;1782001;80;20884;-90
2022/07/13 01:28:45;;;;;;;5.67;2.33;;;;;;;15.25;71.40;100803.92;1782443;80;20907;-90
2022/07/13 01:31:12;;;;;;;3.75;2.60;;;;;;;15.22;71.48;100811.23;1782434;80;21220;-90
2022/07/13 01:33:40;;;;;;;3.40;2.42;;;;;;;15.22;71.48;100811.23;1782318;80;20919;-91
2022/07/13 01:36:07;;;;;;;2.60;2.40;;;;;;;15.20;72.10;100809.17;1782450;79;20836;-90
2022/07/13 01:38:35;;;;;;;3.72;2.65;;;;;;;15.18;72.44;100810.61;1782403;80;20919;-89
2022/07/13 01:41:02;;;;;;;3.10;2.50;;;;;;;15.17;72.44;100808.10;1782281;80;21436;-89
2022/07/13 01:43:30;;;;;;;10.30;2.83;;;;;;;15.10;72.55;100807.24;1782342;80;21203;-89
2022/07/13 01:45:56;;;;;;;3.33;1.90;;;;;;;15.09;72.59;100809.98;1782429;79;21369;-90
2022/07/13 01:48:23;;;;;;;2.62;1.65;;;;;;;15.02;72.65;100800.86;1782522;79;20868;-89
2022/07/13 01:50:51;;;;;;;6.00;2.33;;;;;;;15.00;72.69;100806.73;1782375;79;21425;-89
2022/07/13 01:53:19;;;;;;;6.72;2.33;;;;;;;14.97;72.82;100808.30;1782218;80;21002;-90
2022/07/13 01:55:46;;;;;;;1.95;1.85;;;;;;;14.95;72.99;100808.89;1782492;80;21120;-89
2022/07/13 01:58:13;;;;;;;3.27;2.10;;;;;;;14.95;73.05;100809.72;1782435;80;20868;-89
2022/07/13 02:00:40;;;;;;;3.17;1.85;;;;;;;14.96;73.06;100806.59;1782391;80;20939;-89
2022/07/13 02:03:08;;;;;;;3.37;1.45;;;;;;;14.95;73.05;100805.76;1782342;79;21256;-90
2022/07/13 02:05:36;;;;;;;4.58;2.37;;;;;;;14.96;72.95;100805.27;1782453;80;21405;-89
2022/07/13 02:08:05;;;;;;;2.00;1.72;;;;;;;14.96;72.72;100802.15;1782220;80;21377;-89
2022/07/13 02:10:34;;;;;;;2.72;1.85;;;;;;;14.97;72.54;100805.66;1783819;80;20900;-88
2022/07/13 02:13:11;;;;;;;3.83;2.35;;;;;;;14.98;72.32;100809.48;1784355;80;20879;-88
2022/07/13 02:15:37;;;;;;;;;;;;;;;14.99;72.07;100809.02;1785279;79;20853;-90
2022/07/13 02:18:05;;;;;;;4.40;1.90;;;;;;;14.99;71.45;100811.17;1782697;80;20074;-89
2022/07/13 02:20:35;;;;;;;2.37;1.80;;;;;;;14.99;70.98;100807.22;1782357;80;20919;-88
2022/07/13 02:23:02;;;;;;;5.05;2.30;;;;;;;14.98;71.05;100806.84;1782334;80;20908;-90
2022/07/13 02:25:29;;;;;;;7.50;2.17;;;;;;;14.96;71.14;100810.07;1783607;80;21025;-90
2022/07/13 02:27:58;;;;;;;5.08;2.25;;;;;;;14.95;71.60;100807.08;1787155;78;20895;-90
2022/07/13 02:30:25;;;;;;;4.05;2.62;;;;;;;14.95;71.68;100816.32;1787345;80;20879;-88
2022/07/13 02:32:54;;;;;;;5.45;2.65;;;;;;;14.95;71.87;100819.45;1787169;79;20900;-89
2022/07/13 02:36:58;;;;;;;7.17;2.70;;;;;;;15.01;71.71;100816.36;1855063;77;22551;-89
2022/07/13 02:39:25;;;;;;;15.40;12.90;;;;;;;14.96;71.55;100820.63;1818149;78;20939;-89
2022/07/13 02:41:53;;;;;;;10.28;9.48;;;;;;;14.98;71.53;100821.84;1822750;78;21306;-89
2022/07/13 02:44:21;;;;;;;9.03;5.95;;;;;;;14.98;71.59;100821.84;1822826;78;20880;-89
2022/07/13 02:46:47;;;;;;;7.65;4.60;;;;;;;14.93;71.52;100818.23;1822817;78;20962;-89
2022/07/13 02:49:14;;;;;;;6.67;4.47;;;;;;;14.93;71.52;100818.23;1822779;78;20924;-89
2022/07/13 02:51:42;;;;;;;7.33;3.98;;;;;;;14.95;71.64;100815.48;1822947;78;20903;-88
2022/07/13 02:54:11;;;;;;;6.47;3.37;;;;;;;14.97;71.83;100818.86;1822948;78;20860;-89
2022/07/13 02:56:38;;;;;;;13.30;3.87;;;;;;;14.98;72.33;100817.40;1823831;78;20840;-88
2022/07/13 02:59:06;;;;;;;4.53;2.80;;;;;;;15.03;72.49;100813.09;1825846;77;20982;-88
2022/07/13 03:01:33;;;;;;;5.47;3.52;;;;;;;15.06;72.55;100813.71;1824941;78;20873;-88
2022/07/13 03:04:00;;;;;;;5.87;3.30;;;;;;;15.14;72.65;100806.54;1824027;78;21419;-89
2022/07/13 03:06:31;;;;;;;5.72;2.55;;;;;;;15.29;72.87;100815.07;1823153;78;21205;-88
2022/07/13 03:08:58;;;;;;;5.12;2.58;;;;;;;15.29;72.87;100815.07;1824394;78;20828;-88
2022/07/13 03:11:25;;;;;;;7.08;2.98;;;;;;;15.39;72.67;100808.62;1824693;78;20888;-89
2022/07/13 03:13:53;;;;;;;4.28;2.42;;;;;;;15.48;72.32;100805.26;1823195;78;20974;-90
2022/07/13 03:16:20;;;;;;;3.22;1.65;;;;;;;15.58;71.84;100807.53;1791730;78;21483;-89
2022/07/13 03:18:47;;;;;;;6.45;2.25;;;;;;;15.67;70.21;100807.29;1823011;78;21885;-90
2022/07/13 03:21:14;;;;;;;5.12;1.62;;;;;;;15.77;69.24;100806.14;1822752;78;20991;-90
2022/07/13 03:23:42;;;;;;;5.72;1.90;;;;;;;15.88;68.25;100803.48;1822768;78;20859;-90
2022/07/13 03:26:10;;;;;;;3.33;1.90;;;;;;;15.99;67.67;100802.14;1822746;78;20930;-90
2022/07/13 03:28:37;;;;;;;3.30;2.08;;;;;;;16.10;67.09;100800.80;1822662;78;20970;-90
2022/07/13 03:31:05;;;;;;;5.72;2.20;;;;;;;16.20;66.75;100795.59;1823043;78;21105;-90
2022/07/13 03:33:33;;;;;;;2.15;1.52;;;;;;;16.29;67.48;100792.69;1791195;78;20966;-90
2022/07/13 03:36:02;;;;;;;1.98;1.45;;;;;;;16.40;67.79;100795.30;1824505;78;20878;-90
2022/07/13 03:38:31;;;;;;;2.65;1.50;;;;;;;16.50;67.63;100792.76;1826303;78;20895;-89
2022/07/13 03:40:58;;;;;;;4.05;2.00;;;;;;;16.58;67.15;100794.27;1826649;77;20892;-90
2022/07/13 03:43:25;;;;;;;2.33;1.77;;;;;;;16.66;66.86;100797.13;1826338;78;21071;-90
2022/07/13 03:45:52;;;;;;;4.00;1.62;;;;;;;16.74;67.02;100801.78;1826368;78;20879;-90
2022/07/13 03:48:21;;;;;;;7.00;1.57;;;;;;;16.83;67.16;100798.42;1825661;77;21366;-90
2022/07/13 03:50:48;;;;;;;5.33;1.62;;;;;;;16.92;67.12;100800.30;1825718;78;20962;-88
2022/07/13 03:53:15;;;;;;;5.03;1.37;;;;;;;17.00;66.58;100795.66;1825800;78;20915;-89
2022/07/13 03:55:43;;;;;;;3.50;1.32;;;;;;;17.09;65.80;100791.39;1825806;78;21215;-89
2022/07/13 03:58:10;;;;;;;3.00;1.42;;;;;;;17.19;65.32;100792.30;1825878;78;20955;-89
2022/07/13 04:00:40;;;;;;;1.62;1.30;;;;;;;17.24;64.96;100782.63;1825962;78;20915;-88
2022/07/13 04:03:07;;;;;;;4.97;1.60;;;;;;;17.37;63.96;100785.91;1825810;78;20927;-90
2022/07/13 04:05:34;;;;;;;4.78;1.50;;;;;;;17.56;64.75;100784.69;1826389;77;20848;-87
2022/07/13 04:08:04;;;;;;;2.33;0.75;;;;;;;17.56;64.75;100784.69;1826472;77;20950;-89
2022/07/13 04:10:31;;;;;;;3.30;0.90;;;;;;;17.68;62.36;100787.23;1826551;78;20884;-92
2022/07/13 04:12:59;;;;;;;1.20;0.78;;;;;;;17.79;60.97;100787.13;1825763;77;21326;-91
2022/07/13 04:15:27;;;;;;;0.82;0.80;;;;;;;17.93;59.45;100788.59;1825659;77;20970;-90
2022/07/13 04:17:54;;;;;;;2.02;1.05;;;;;;;18.09;58.00;100780.94;1825542;77;21436;-90
2022/07/13 04:20:22;;;;;;;3.95;1.27;;;;;;;18.30;56.64;100787.98;1825787;77;21271;-87
2022/07/13 04:22:50;;;;;;;4.15;1.30;;;;;;;18.52;55.65;100785.06;1825873;77;20904;-89
2022/07/13 04:25:17;;;;;;;1.27;1.07;;;;;;;18.81;54.61;100778.43;1825789;77;20915;-90
2022/07/13 04:27:44;;;;;;;1.82;1.20;;;;;;;19.31;54.02;100775.17;1825511;77;20926;-89
2022/07/13 04:30:12;;;;;;;5.25;2.15;;;;;;;19.96;52.58;100780.00;1826226;78;20872;-90
2022/07/13 04:32:39;;;;;;;5.20;3.37;;;;;;;20.68;51.46;100780.09;1827466;78;21203;-88
2022/07/13 04:35:07;;;;;;;6.80;2.77;;;;;;;21.38;49.74;100782.72;1827826;78;20951;-87
2022/07/13 04:37:36;;;;;;;4.12;3.30;;;;;;;22.08;47.81;100779.86;1826225;78;20931;-90
2022/07/13 04:40:04;;;;;;;3.15;2.85;;;;;;;22.74;46.49;100772.79;1826486;77;20931;-89
2022/07/13 04:42:31;;;;;;;7.00;2.37;;;;;;;23.38;44.39;100768.01;1826142;78;20914;-91
2022/07/13 04:45:00;;;;;;;4.75;1.70;;;;;;;23.94;42.25;100770.13;1825962;77;22064;-90
2022/07/13 04:47:27;;;;;;;10.70;4.12;;;;;;;24.45;41.09;100768.30;1825657;78;20931;-90
2022/07/13 04:49:55;;;;;;;1.98;1.55;;;;;;;24.94;39.75;100759.84;1825825;77;20966;-90
2022/07/13 04:52:24;;;;;;;3.10;1.82;;;;;;;25.39;38.90;100758.56;1825729;78;20923;-89
2022/07/13 04:54:52;;;;;;;3.65;1.87;;;;;;;25.87;38.31;100762.17;1825614;77;20911;-91
2022/07/13 04:57:20;;;;;;;4.03;1.67;;;;;;;26.35;37.96;100760.65;1825795;77;21243;-91
2022/07/13 04:59:47;;;;;;;10.43;2.58;;;;;;;26.82;37.09;100759.73;1825638;78;20920;-90
2022/07/13 05:02:14;;;;;;;7.47;5.60;;;;;;;27.23;35.82;100756.30;1826338;78;20845;-89
2022/07/13 05:04:42;;;;;;;3.95;2.20;;;;;;;27.59;33.84;100753.88;1826525;78;20899;-91
2022/07/13 05:07:09;;;;;;;2.50;1.22;;;;;;;27.89;33.69;100752.58;1826466;78;20919;-90
2022/07/13 05:09:36;;;;;;;3.45;1.40;;;;;;;28.21;33.47;100754.20;1826156;76;21241;-92
2022/07/13 05:12:04;;;;;;;6.75;1.57;;;;;;;28.54;33.07;100755.31;1825970;77;21488;-92
2022/07/13 05:14:35;;;;;;;5.83;1.70;;;;;;;28.88;32.45;100758.30;1825273;78;20970;-94
2022/07/13 05:17:02;;;;;;;7.12;1.77;;;;;;;29.20;32.18;100755.27;1825030;77;20884;-92
2022/07/13 05:19:30;;;;;;;2.87;1.85;;;;;;;29.49;31.64;100751.23;1825503;78;21309;-91
2022/07/13 05:21:57;;;;;;;7.58;1.20;;;;;;;29.80;31.57;100752.37;1825429;78;21118;-92
2022/07/13 05:24:24;;;;;;;3.35;1.30;;;;;;;30.14;31.47;100750.30;1825247;78;20927;-91
2022/07/13 05:26:52;;;;;;;2.67;0.90;;;;;;;30.43;30.34;100749.41;1825457;77;20915;-92
2022/07/13 05:29:20;;;;;;;5.03;1.10;;;;;;;30.71;29.78;100747.61;1825705;77;20927;-91
2022/07/13 05:31:48;;;;;;;2.25;0.88;;;;;;;31.00;29.32;100744.76;1825463;78;20911;-91
2022/07/13 05:34:15;;;;;;;5.28;0.80;;;;;;;31.30;29.46;100744.83;1825297;77;21224;-91
2022/07/13 05:36:44;;;;;;;4.92;0.70;;;;;;;31.58;28.12;100739.43;1823398;77;21115;-90
2022/07/13 05:39:11;;;;;;;2.02;0.60;;;;;;;31.76;28.30;100736.67;1821978;78;20864;-92
2022/07/13 05:41:39;;;;;;;1.65;0.72;;;;;;;31.99;28.13;100728.34;1822120;78;20880;-91
2022/07/13 05:44:07;;;;;;;5.03;1.10;;;;;;;32.24;27.93;100728.20;1822910;78;20895;-91
2022/07/13 05:46:36;;;;;;;2.87;0.60;;;;;;;32.53;27.53;100729.20;1819996;78;21242;-93
2022/07/13 05:49:04;;;;;;;5.80;0.85;;;;;;;32.76;26.10;100719.41;1819094;78;20974;-93
2022/07/13 05:51:31;;;;;;;4.65;0.85;;;;;;;32.95;26.44;100726.88;1822416;78;20895;-92
2022/07/13 05:53:58;;;;;;;1.92;0.80;;;;;;;33.18;26.29;100728.24;1822257;78;20849;-92
2022/07/13 05:56:26;;;;;;;2.47;0.47;;;;;;;33.44;26.14;100720.62;1822494;78;21467;-93
2022/07/13 05:58:53;;;;;;;4.60;0.60;;;;;;;33.69;25.43;100716.77;1822648;78;21283;-94
2022/07/13 06:01:20;;;;;;;0.68;0.40;;;;;;;33.72;24.35;100714.92;1822331;78;21322;-91
2022/07/13 06:03:47;;;;;;;0.68;0.50;;;;;;;33.67;24.22;100710.20;1823044;78;21375;-91
2022/07/13 06:06:14;;;;;;;3.02;0.68;;;;;;;33.65;23.37;100709.62;1823470;78;20927;-91
2022/07/13 06:08:42;;;;;;;2.25;0.53;;;;;;;33.67;23.74;100710.75;1822644;78;20880;-94
2022/07/13 06:11:10;;;;;;;3.05;0.70;;;;;;;33.75;23.44;100703.53;1822057;78;21248;-93
2022/07/13 06:13:37;;;;;;;2.83;0.42;;;;;;;33.85;23.37;100699.65;1822300;78;20906;-93
2022/07/13 06:16:07;;;;;;;3.70;0.78;;;;;;;34.03;23.25;100698.60;1822293;78;20958;-92
2022/07/13 06:18:34;;;;;;;2.65;0.60;;;;;;;34.18;23.13;100693.98;1822530;78;21114;-91
2022/07/13 06:21:10;;;;;;;42.48;4.78;;;;;;;34.34;23.29;100690.42;1823726;78;20969;-92
2022/07/13 06:23:41;;;;;;;2.83;0.78;;;;;;;34.53;23.59;100685.55;1821976;78;20892;-92
2022/07/13 06:26:16;;;;;;;26.48;2.60;;;;;;;34.77;21.85;100684.00;1824475;78;20884;-92
2022/07/13 06:28:43;;;;;;;12.70;1.82;;;;;;;34.87;22.40;100678.15;1823859;78;21414;-91
2022/07/13 06:31:13;;;;;;;6.92;1.17;;;;;;;35.02;21.95;100676.72;1822426;78;20891;-92
2022/07/13 06:33:41;;;;;;;17.57;2.15;;;;;;;35.14;22.10;100670.61;1822672;78;20860;-90
2022/07/13 06:36:09;;;;;;;51.75;6.15;;;;;;;35.31;21.35;100675.15;1823313;78;21212;-93
2022/07/13 06:38:37;;;;;;;10.23;1.87;;;;;;;35.43;21.84;100683.48;1825692;78;21480;-92
2022/07/13 06:41:04;;;;;;;5.62;1.20;;;;;;;35.58;21.22;100683.38;1825754;78;21045;-92
2022/07/13 06:43:32;;;;;;;10.58;1.62;;;;;;;35.74;20.82;100677.01;1825810;78;20868;-91
2022/07/13 06:45:59;;;;;;;7.12;1.05;;;;;;;35.97;20.72;100676.39;1825584;78;21460;-92
2022/07/13 06:48:27;;;;;;;4.75;1.15;;;;;;;36.20;20.45;100676.08;1825966;78;21075;-91
2022/07/13 06:50:54;;;;;;;2.20;0.50;;;;;;;36.40;19.95;100674.58;1826135;78;21528;-92
2022/07/13 06:53:21;;;;;;;5.70;0.98;;;;;;;36.56;19.89;100677.67;1798736;78;20943;-91
2022/07/13 06:55:48;;;;;;;6.78;0.82;;;;;;;36.68;19.54;100678.30;1824982;78;21421;-93
2022/07/13 06:58:15;;;;;;;4.08;0.42;;;;;;;36.79;19.24;100682.48;1825678;78;20931;-92
2022/07/13 07:00:42;;;;;;;3.30;0.62;;;;;;;36.89;19.29;100677.88;1825939;78;21342;-90
2022/07/13 07:03:09;;;;;;;4.30;0.60;;;;;;;36.99;19.17;100677.09;1827341;78;20848;-91
2022/07/13 07:05:36;;;;;;;0.95;0.33;;;;;;;36.97;18.46;100676.53;1826759;78;20978;-94
2022/07/13 07:08:03;;;;;;;3.90;0.68;;;;;;;36.85;18.58;100677.31;1825793;78;20896;-93
2022/07/13 07:10:30;;;;;;;3.10;0.70;;;;;;;36.76;18.64;100674.81;1825530;78;20922;-92
2022/07/13 07:12:59;;;;;;;3.22;0.72;;;;;;;36.82;19.20;100666.38;1825345;78;20849;-92
2022/07/13 07:15:26;;;;;;;2.27;0.40;;;;;;;36.80;18.74;100670.44;1825247;78;20864;-92
2022/07/13 07:17:54;;;;;;;19.02;2.20;;;;;;;36.69;19.17;100670.95;1825333;78;20950;-91
2022/07/13 07:20:22;;;;;;;8.85;1.72;;;;;;;36.65;18.82;100672.02;1825498;78;20843;-91
2022/07/13 07:22:48;;;;;;;4.17;0.80;;;;;;;36.59;18.96;100668.13;1825828;78;20844;-92
2022/07/13 07:25:16;;;;;;;6.92;0.80;;;;;;;36.57;19.40;100665.64;1826143;78;21303;-93
2022/07/13 07:27:43;;;;;;;1.45;0.80;;;;;;;36.60;19.42;100672.00;1826006;78;20907;-91
2022/07/13 07:30:11;;;;;;;2.35;0.57;;;;;;;36.64;19.19;100669.02;1826248;78;20892;-92
2022/07/13 07:32:39;;;;;;;4.42;0.95;;;;;;;36.67;19.15;100660.28;1825612;78;21358;-93
2022/07/13 07:35:08;;;;;;;2.45;0.62;;;;;;;36.78;19.50;100661.70;1825719;78;20927;-92
2022/07/13 07:37:39;;;;;;;3.70;1.20;;;;;;;36.90;19.20;100659.02;1823266;78;20891;-91
2022/07/13 07:40:07;;;;;;;8.53;1.02;;;;;;;36.99;18.72;100662.05;1822370;78;20923;-90
2022/07/13 07:42:35;;;;;;;4.58;1.30;;;;;;;37.06;18.95;100650.31;1821994;78;21073;-91
2022/07/13 07:45:03;;;;;;;12.98;1.92;;;;;;;37.21;19.48;100648.77;1822158;78;20908;-91
2022/07/13 07:47:31;;;;;;;6.87;1.50;;;;;;;37.39;18.96;100656.47;1822049;78;21302;-91
2022/07/13 07:49:59;;;;;;;4.97;1.00;;;;;;;37.41;18.30;100648.00;1822565;78;21862;-91
2022/07/13 07:52:26;;;;;;;8.90;2.10;;;;;;;37.34;18.69;100642.23;1822615;78;20920;-92
2022/07/13 07:54:53;;;;;;;7.83;2.12;;;;;;;37.36;18.26;100650.18;1822579;78;20880;-90
2022/07/13 07:57:20;;;;;;;2.67;0.78;;;;;;;37.22;18.34;100644.41;1822255;78;20900;-91
2022/07/13 07:59:47;;;;;;;1.55;0.47;;;;;;;37.08;18.77;100632.31;1822767;78;20931;-88
2022/07/13 08:02:15;;;;;;;2.65;0.53;;;;;;;37.06;18.36;100638.02;1823348;78;21289;-88
2022/07/13 08:04:42;;;;;;;3.67;1.00;;;;;;;37.05;17.78;100636.38;1822812;78;21401;-89
2022/07/13 08:07:10;;;;;;;7.25;0.88;;;;;;;37.05;18.49;100635.56;1822242;78;20844;-91
2022/07/13 08:09:39;;;;;;;4.22;0.78;;;;;;;37.14;18.64;100633.98;1822499;78;20951;-89
2022/07/13 08:12:06;;;;;;;2.10;0.50;;;;;;;37.26;18.81;100635.09;1822791;78;20970;-92
2022/07/13 08:14:35;;;;;;;4.62;0.62;;;;;;;37.43;18.60;100630.21;1823289;78;21156;-91
2022/07/13 08:17:02;;;;;;;8.35;1.52;;;;;;;37.59;18.51;100631.08;1824078;78;20915;-88
2022/07/13 08:19:30;;;;;;;1.10;0.50;;;;;;;37.62;17.94;100625.60;1823955;78;20852;-92
2022/07/13 08:21:57;;;;;;;1.47;0.40;;;;;;;37.59;17.86;100626.16;1825142;78;20990;-90
2022/07/13 08:24:24;;;;;;;2.08;0.50;;;;;;;37.53;18.01;100613.81;1824740;78;20965;-89
2022/07/13 08:26:53;;;;;;;1.85;0.40;;;;;;;37.52;18.15;100619.00;1824018;78;21045;-90
2022/07/13 08:29:20;;;;;;;2.33;1.17;;;;;;;37.59;18.59;100610.55;1823598;78;20836;-88
2022/07/13 08:31:47;;;;;;;1.62;0.30;;;;;;;37.40;18.77;100611.61;1823347;78;21018;-90
2022/07/13 08:39:47;;;;;;;1.45;0.35;;;;;;;37.23;18.64;100611.03;1823576;78;22136;-91
2022/07/13 08:42:14;;;;;;;1.15;0.30;;;;;;;37.26;18.20;100607.19;1823376;78;21421;-92
2022/07/13 08:44:41;;;;;;;4.25;0.55;;;;;;;37.28;18.34;100602.83;1823510;78;20911;-89
2022/07/13 08:47:09;;;;;;;5.08;0.35;;;;;;;37.30;18.26;100604.75;1823255;78;20919;-91
2022/07/13 08:49:37;;;;;;;0.57;0.20;;;;;;;37.31;17.65;100606.41;1823287;78;20943;-91
2022/07/13 08:52:05;;;;;;;0.57;0.40;;;;;;;37.38;17.59;100602.04;1822056;78;21221;-92
2022/07/13 08:54:32;;;;;;;1.85;0.75;;;;;;;37.29;17.32;100594.91;1822163;78;20864;-94
2022/07/13 08:57:00;;;;;;;4.33;0.33;;;;;;;37.04;17.62;100599.20;1822073;78;20966;-92
2022/07/13 08:59:26;;;;;;;2.67;0.33;;;;;;;36.95;17.44;100610.36;1822362;78;21452;-89
2022/07/13 09:01:54;;;;;;;1.80;0.30;;;;;;;36.86;18.13;100600.48;1822605;78;20987;-91
2022/07/13 09:04:22;;;;;;;3.15;0.42;;;;;;;36.87;17.96;100595.31;1817308;78;21332;-91
2022/07/13 09:06:49;;;;;;;3.83;0.85;;;;;;;36.99;18.34;100600.53;1822088;78;21444;-89
2022/07/13 09:09:31;;;;;;;2.35;0.50;;;;;;;37.11;18.00;100593.52;1822640;78;20938;-91
2022/07/13 09:12:19;;;;;;;3.08;0.25;;;;;;;37.21;17.70;100593.52;1823389;78;20939;-91
2022/07/13 09:14:57;;;;;;;4.78;1.20;;;;;;;37.32;17.54;100594.36;1824027;78;20986;-90
2022/07/13 09:17:35;;;;;;;2.65;0.40;;;;;;;37.23;17.66;100593.25;1822600;78;21014;-90
2022/07/13 09:20:17;;;;;;;3.02;0.50;;;;;;;37.19;17.79;100592.95;1821975;78;20947;-92
2022/07/13 09:22:53;;;;;;;2.45;0.42;;;;;;;36.90;18.45;100586.56;1821986;78;20904;-91
2022/07/13 09:25:32;;;;;;;1.47;0.50;;;;;;;36.48;18.76;100587.45;1822064;78;20927;-92
2022/07/13 09:28:05;;;;;;;5.05;0.50;;;;;;;35.87;18.83;100584.33;1822263;78;20947;-90
2022/07/13 09:30:34;;;;;;;3.12;0.80;;;;;;;35.50;19.40;100581.80;1822063;78;21957;-90
2022/07/13 09:33:01;;;;;;;4.60;0.40;;;;;;;35.42;19.72;100573.30;1821646;78;20868;-91
2022/07/13 09:35:45;;;;;;;1.87;0.40;;;;;;;35.59;19.48;100575.87;1821827;78;20888;-91
2022/07/13 09:38:37;;;;;;;1.50;0.47;;;;;;;35.80;19.72;100566.81;1823938;78;20844;-89
2022/07/13 09:41:19;;;;;;;2.08;0.50;;;;;;;35.72;19.37;100565.11;1826212;77;20851;-91
2022/07/13 09:47:00;;;;;;;4.33;0.53;;;;;;;35.47;19.15;100572.78;1825222;78;20884;-89
2022/07/13 09:49:42;;;;;;;1.57;0.40;;;;;;;35.46;19.03;100568.94;1825393;78;20962;-92
2022/07/13 09:52:18;;;;;;;2.98;0.30;;;;;;;35.36;19.31;100558.77;1825406;78;20919;-90
2022/07/13 09:54:51;;;;;;;1.15;0.60;;;;;;;35.32;19.41;100550.82;1825470;78;20887;-92
2022/07/13 09:57:21;;;;;;;1.30;0.53;;;;;;;35.46;19.69;100552.58;1825739;78;21096;-89
2022/07/13 09:59:49;;;;;;;1.92;0.75;;;;;;;35.70;19.87;100559.90;1826224;78;21424;-90
2022/07/13 10:02:17;;;;;;;1.17;0.57;;;;;;;35.89;19.26;100546.13;1826047;77;20943;-92
2022/07/13 10:04:47;;;;;;;1.30;0.60;;;;;;;35.99;18.68;100544.00;1825837;77;21300;-90
2022/07/13 10:07:13;;;;;;;2.10;0.40;;;;;;;36.18;19.46;100551.26;1825733;77;21476;-91
2022/07/13 10:09:41;;;;;;;2.12;0.50;;;;;;;36.46;18.75;100535.02;1798572;78;20848;-92
2022/07/13 10:12:10;;;;;;;3.25;0.50;;;;;;;36.59;18.55;100532.31;1825115;78;20920;-92
2022/07/13 10:14:38;;;;;;;1.52;0.65;;;;;;;36.68;18.53;100538.93;1825535;78;20884;-93
2022/07/13 10:17:10;;;;;;;1.92;0.50;;;;;;;36.68;18.79;100529.36;1825982;77;20978;-91
2022/07/13 10:19:46;;;;;;;2.75;0.50;;;;;;;36.74;18.92;100530.22;1825575;76;20970;-91
2022/07/13 10:22:21;;;;;;;1.12;0.28;;;;;;;36.70;18.92;100528.55;1822397;77;21251;-92
2022/07/13 10:24:54;;;;;;;4.15;0.50;;;;;;;36.64;18.89;100525.55;1825164;77;20884;-92
2022/07/13 10:27:27;;;;;;;1.72;0.25;;;;;;;36.47;18.91;100528.45;1825407;77;20907;-91
2022/07/13 10:30:00;;;;;;;1.22;0.60;;;;;;;36.51;19.28;100530.12;1825452;77;20939;-91
2022/07/13 10:32:29;;;;;;;2.75;0.50;;;;;;;36.55;19.03;100521.64;1825591;77;20887;-92
2022/07/13 10:35:09;;;;;;;2.58;0.45;;;;;;;36.63;19.15;100518.42;1825711;78;21131;-91
2022/07/13 10:38:02;;;;;;;1.77;0.40;;;;;;;36.56;18.94;100510.19;1791995;79;21534;-90
2022/07/13 10:40:31;;;;;;;;;;;;;;;36.38;18.44;100496.47;1800606;78;20876;-93
2022/07/13 10:43:04;;;;;;;2.50;0.95;;;;;;;35.90;19.16;100514.20;1798227;79;20201;-92
2022/07/13 10:45:38;;;;;;;0.30;0.20;;;;;;;35.42;19.23;100519.55;1798227;78;20839;-91
2022/07/13 10:48:25;;;;;;;1.90;0.80;;;;;;;35.31;19.82;100515.62;1798586;78;22645;-92
2022/07/13 10:50:57;;;;;;;2.05;0.60;;;;;;;35.21;19.75;100510.91;1798145;78;20907;-91
2022/07/13 10:53:50;;;;;;;2.35;0.33;;;;;;;35.27;19.14;100505.79;1798626;77;21416;-93
2022/07/13 10:56:21;;;;;;;7.03;0.80;;;;;;;35.30;19.03;100494.35;1764097;80;21037;-90
2022/07/13 10:58:49;;;;;;;6.03;0.78;;;;;;;35.40;19.37;100488.99;1764823;81;21448;-89
2022/07/13 11:01:41;;;;;;;4.15;0.65;;;;;;;35.54;19.82;100486.64;1763557;81;21268;-91
2022/07/13 11:04:07;;;;;;;6.45;5.37;;;;;;;35.72;19.88;100488.16;1763112;79;21009;-90
2022/07/13 11:06:35;;;;;;;10.23;9.33;;;;;;;35.87;19.67;100482.80;1763171;81;20974;-90
2022/07/13 11:09:20;;;;;;;4.50;0.95;;;;;;;35.97;19.35;100483.38;1763382;79;20919;-90
2022/07/13 11:11:53;;;;;;;5.78;0.47;;;;;;;35.98;19.10;100460.47;1763353;79;20974;-91
2022/07/13 11:14:42;;;;;;;5.15;1.00;;;;;;;35.79;19.36;100472.91;1763234;81;21128;-92
2022/07/13 11:17:21;;;;;;;7.37;1.17;;;;;;;35.50;19.54;100460.95;1763309;79;20855;-91
2022/07/13 11:19:52;;;;;;;4.35;1.25;;;;;;;35.19;19.74;100470.81;1763168;81;20981;-92
2022/07/13 11:22:21;;;;;;;4.30;0.70;;;;;;;34.73;19.63;100460.28;1763369;81;20912;-91
2022/07/13 11:25:19;;;;;;;5.58;1.30;;;;;;;34.37;20.23;100463.09;1763337;80;21092;-92
2022/07/13 11:28:01;;;;;;;5.03;0.70;;;;;;;34.13;20.30;100462.00;1763634;80;21219;-91
2022/07/13 11:30:29;;;;;;;2.72;0.88;;;;;;;33.87;20.95;100453.17;1700190;83;21001;-92
2022/07/13 11:32:57;;;;;;;1.65;0.90;;;;;;;33.68;21.87;100447.99;1697627;82;20994;-92
2022/07/13 11:35:24;;;;;;;3.72;0.93;;;;;;;33.66;21.55;100450.14;1697400;82;20923;-91
2022/07/13 11:37:52;;;;;;;3.27;1.00;;;;;;;33.50;21.92;100448.23;1702857;82;21394;-93
2022/07/13 11:40:29;;;;;;;5.70;0.95;;;;;;;33.39;21.90;100437.19;1717143;83;21163;-90
2022/07/13 11:42:59;;;;;;;4.62;1.20;;;;;;;33.12;21.78;100437.03;1716720;83;20999;-91